Terminal Aerodrome Forecast
Issued by NWS Charleston, WV

Current Version | Previous Version | Graphics & Text | Print | Product List | Glossary On
Versions: 1 2 3 4 5 6 7 8 9 10 11 12 13 14 15 16 17 18 19 20 21 22 23
930
FTUS41 KRLX 180533
TAFPKB
TAF
KPKB 180533Z 1806/1906 00000KT P6SM SKC
     FM180700 00000KT 3SM BR SKC
     FM180900 00000KT 1/4SM FG OVC001
     FM181300 00000KT 2SM BR SKC
     FM181400 21006KT P6SM SKC=

USA.gov is the U.S. government's official web portal to all federal, state and local government web resources and services.